Time;durP1;ratioP1;P1;durP2;ratioP2;P2;SDS_P1;SDS_P2;PMS_P1;PMS_P2;Temp;Humidity;BMP_temperature;BMP_pressure;BME280_temperature;BME280_humidity;BME280_pressure;Samples;Min_cycle;Max_cycle;Signal;HPM_P1;HPM_P2
2021/09/13 00:01:58;;;;;;;;;9.75;8.00;;;;;25.17;40.09;101361.09;5075775;27;51083;-57
2021/09/13 00:04:24;;;;;;;;;8.00;8.00;;;;;25.16;39.92;101363.03;5094451;27;51357;-57
2021/09/13 00:06:49;;;;;;;;;8.25;5.25;;;;;25.17;39.98;101359.19;5080137;27;52167;-58
2021/09/13 00:09:14;;;;;;;;;10.25;9.50;;;;;25.14;39.75;101362.44;5075170;27;51195;-57
2021/09/13 00:11:40;;;;;;;;;10.25;8.25;;;;;25.15;39.88;101361.34;5094331;27;51119;-57
2021/09/13 00:14:05;;;;;;;;;10.25;8.75;;;;;25.14;39.97;101365.22;5096525;27;51074;-57
2021/09/13 00:16:30;;;;;;;;;9.50;7.00;;;;;25.14;40.19;101359.66;5089970;27;51027;-57
2021/09/13 00:18:56;;;;;;;;;8.00;7.00;;;;;25.13;39.96;101369.06;5097016;27;51095;-57
2021/09/13 00:21:21;;;;;;;;;8.25;5.00;;;;;25.13;39.86;101357.16;5090537;27;51153;-57
2021/09/13 00:23:46;;;;;;;;;4.50;4.50;;;;;25.12;40.28;101353.53;5080414;27;51420;-57
2021/09/13 00:26:12;;;;;;;;;8.25;7.00;;;;;25.12;39.99;101349.91;5082473;27;52564;-57
2021/09/13 00:28:37;;;;;;;;;8.50;7.00;;;;;25.13;40.01;101351.59;5081949;27;51155;-58
2021/09/13 00:31:02;;;;;;;;;6.25;6.25;;;;;25.12;40.13;101348.00;5081901;27;52288;-57
2021/09/13 00:33:28;;;;;;;;;7.50;5.75;;;;;25.12;40.09;101344.38;5097304;27;52448;-57
2021/09/13 00:35:53;;;;;;;;;6.75;6.75;;;;;25.10;40.17;101338.19;5097457;27;51694;-58
2021/09/13 00:38:19;;;;;;;;;5.00;5.00;;;;;25.10;40.10;101333.50;5096485;27;51146;-56
2021/09/13 00:40:44;;;;;;;;;9.50;7.00;;;;;25.10;40.15;101327.13;5088174;27;51192;-57
2021/09/13 00:43:11;;;;;;;;;6.75;6.00;;;;;25.09;40.56;101330.97;5078195;27;51133;-57
2021/09/13 00:45:36;;;;;;;;;7.25;5.75;;;;;25.09;40.23;101328.19;5092058;27;51226;-56
2021/09/13 00:48:02;;;;;;;;;7.25;5.75;;;;;25.08;40.14;101335.69;5088393;27;51242;-57
2021/09/13 00:50:27;;;;;;;;;5.50;5.25;;;;;25.08;40.09;101332.91;5095044;27;51200;-56
2021/09/13 00:52:54;;;;;;;;;4.00;4.00;;;;;25.08;40.19;101332.91;5077742;27;51050;-57
2021/09/13 00:55:21;;;;;;;;;6.25;6.25;;;;;25.07;40.39;101328.44;5077619;27;51842;-56
2021/09/13 00:57:49;;;;;;;;;4.50;4.00;;;;;25.07;40.24;101325.69;5077584;27;51246;-57
2021/09/13 01:00:15;;;;;;;;;5.50;3.00;;;;;25.07;40.27;101335.91;5064402;28;51283;-56
2021/09/13 01:02:40;;;;;;;;;5.50;5.50;;;;;25.06;40.27;101326.75;5096700;27;51030;-57
2021/09/13 01:05:06;;;;;;;;;6.50;6.50;;;;;25.05;40.27;101327.84;5097082;27;51121;-57
2021/09/13 01:07:32;;;;;;;;;5.25;5.25;;;;;25.05;40.14;101327.84;5096620;27;50931;-57
2021/09/13 01:10:01;;;;;;;;;5.75;5.25;;;;;25.05;40.35;101325.06;5078385;27;51308;-58
2021/09/13 01:12:27;;;;;;;;;5.75;5.00;;;;;25.02;40.54;101326.41;5078884;27;51167;-62
2021/09/13 01:14:52;;;;;;;;;7.00;6.25;;;;;25.03;40.33;101327.25;5086598;27;51944;-57
2021/09/13 01:17:17;;;;;;;;;5.75;5.75;;;;;25.02;40.39;101329.19;5077759;27;51009;-57
2021/09/13 01:19:43;;;;;;;;;4.75;4.75;;;;;25.03;40.22;101335.56;5079326;27;51491;-57
2021/09/13 01:22:12;;;;;;;;;7.25;5.75;;;;;25.02;40.44;101337.50;5088026;27;51383;-57
2021/09/13 01:24:37;;;;;;;;;8.25;7.25;;;;;25.01;40.37;101323.81;5077174;27;51108;-57
2021/09/13 01:27:06;;;;;;;;;4.50;4.00;;;;;25.01;40.42;101329.38;5087620;27;51214;-57
2021/09/13 01:29:32;;;;;;;;;6.00;5.75;;;;;25.01;40.36;101326.59;5083791;27;51156;-58
2021/09/13 01:31:58;;;;;;;;;4.75;4.50;;;;;25.01;40.23;101329.38;5079350;27;51125;-57
2021/09/13 01:34:24;;;;;;;;;4.50;4.50;;;;;24.99;40.27;101326.00;5077368;27;51792;-56
2021/09/13 01:36:50;;;;;;;;;5.75;4.75;;;;;24.99;40.34;101315.75;5064704;28;51540;-56
2021/09/13 01:39:16;;;;;;;;;6.00;6.00;;;;;24.99;40.42;101323.22;5076816;27;51466;-57
2021/09/13 01:41:43;;;;;;;;;5.75;5.75;;;;;24.98;40.35;101321.53;5091815;27;51298;-57
2021/09/13 01:44:09;;;;;;;;;7.25;7.00;;;;;24.98;40.47;101316.00;5088456;27;51036;-55
2021/09/13 01:46:34;;;;;;;;;7.25;6.00;;;;;24.96;40.48;101316.25;5079401;27;51158;-57
2021/09/13 01:48:59;;;;;;;;;8.25;7.00;;;;;24.96;40.47;101320.94;5086292;27;51068;-56
2021/09/13 01:51:25;;;;;;;;;7.00;7.00;;;;;24.95;40.37;101320.09;5087836;27;51271;-57
2021/09/13 01:53:50;;;;;;;;;6.75;5.50;;;;;24.95;40.31;101322.88;5085021;27;51785;-57
2021/09/13 01:56:15;;;;;;;;;7.25;6.50;;;;;24.94;40.41;101323.97;5082811;27;51591;-57
2021/09/13 01:58:41;;;;;;;;;4.75;4.50;;;;;24.92;40.29;101319.75;5077879;27;51079;-57
2021/09/13 02:01:06;;;;;;;;;4.25;4.25;;;;;24.92;40.33;101326.13;5076707;27;51207;-57
2021/09/13 02:03:31;;;;;;;;;5.25;5.25;;;;;24.91;40.48;101326.38;5076070;27;51843;-57
2021/09/13 02:05:57;;;;;;;;;5.75;5.25;;;;;24.91;40.29;101326.38;5076565;27;51154;-56
2021/09/13 02:08:22;;;;;;;;;5.00;5.00;;;;;24.88;40.36;101316.59;5079476;27;51702;-56
2021/09/13 02:10:48;;;;;;;;;5.75;5.25;;;;;24.89;40.33;101328.53;5095975;27;51203;-57
2021/09/13 02:13:14;;;;;;;;;5.50;4.75;;;;;24.89;40.25;101322.97;5078108;27;51791;-56
2021/09/13 02:15:39;;;;;;;;;6.75;5.25;;;;;24.87;40.44;101314.91;5095247;27;51144;-56
2021/09/13 02:18:05;;;;;;;;;5.00;5.00;;;;;24.86;40.17;101321.53;5094538;27;51206;-57
2021/09/13 02:20:30;;;;;;;;;6.00;4.75;;;;;24.85;40.23;101317.09;5093712;27;51326;-57
2021/09/13 02:22:55;;;;;;;;;6.25;5.00;;;;;24.84;40.19;101317.34;5090455;27;51043;-57
2021/09/13 02:25:21;;;;;;;;;6.75;5.25;;;;;24.84;40.18;101320.94;5095629;27;51139;-56
2021/09/13 02:27:46;;;;;;;;;5.00;4.75;;;;;24.83;40.28;101322.03;5086199;27;51199;-56
2021/09/13 02:30:12;;;;;;;;;9.00;6.25;;;;;24.82;40.10;101319.50;5087682;27;51107;-57
2021/09/13 02:32:37;;;;;;;;;6.25;5.25;;;;;24.82;40.44;101319.50;5075469;27;51112;-56
2021/09/13 02:35:07;;;;;;;;;3.75;3.75;;;;;24.80;40.35;101311.41;5078099;27;50929;-56
2021/09/13 02:37:33;;;;;;;;;6.00;4.75;;;;;24.80;40.41;101316.09;5092880;27;51218;-57
2021/09/13 02:40:00;;;;;;;;;6.00;4.75;;;;;24.80;40.13;101319.72;5083376;27;51191;-56
2021/09/13 02:42:25;;;;;;;;;6.00;5.50;;;;;24.79;40.36;101318.03;5080874;27;52062;-57
2021/09/13 02:44:50;;;;;;;;;5.75;4.50;;;;;24.78;40.16;101310.81;5076256;27;51123;-56
2021/09/13 02:47:16;;;;;;;;;6.25;5.50;;;;;24.77;39.90;101315.50;5095738;27;50954;-57
2021/09/13 02:49:41;;;;;;;;;5.00;5.00;;;;;24.76;40.58;101313.81;5092760;27;51026;-59
2021/09/13 02:52:06;;;;;;;;;5.50;5.50;;;;;24.75;40.25;101317.69;5092014;27;51931;-56
2021/09/13 02:54:32;;;;;;;;;4.00;4.00;;;;;24.75;40.08;101316.84;5093359;27;51233;-55
2021/09/13 02:56:57;;;;;;;;;5.00;4.50;;;;;24.73;40.05;101313.47;5096000;27;51094;-56
2021/09/13 02:59:23;;;;;;;;;4.25;4.25;;;;;24.73;40.04;101316.25;5096050;27;51171;-56
2021/09/13 03:01:48;;;;;;;;;8.25;5.25;;;;;24.71;40.18;101315.66;5094014;27;51836;-58
2021/09/13 03:04:14;;;;;;;;;5.75;4.75;;;;;24.69;40.13;101315.84;5094217;27;50998;-58
2021/09/13 03:06:39;;;;;;;;;5.00;4.50;;;;;24.69;40.40;101306.72;5078246;27;50912;-56
2021/09/13 03:09:04;;;;;;;;;7.25;5.00;;;;;24.68;40.50;101314.19;5060625;27;50990;-56
2021/09/13 03:11:30;;;;;;;;;5.50;5.50;;;;;24.67;40.26;101295.88;5084157;27;51546;-56
2021/09/13 03:13:55;;;;;;;;;7.75;6.00;;;;;24.66;40.29;101296.13;5076136;27;51159;-57
2021/09/13 03:16:21;;;;;;;;;5.75;5.25;;;;;24.65;40.35;101295.28;5076668;27;51323;-56
2021/09/13 03:18:46;;;;;;;;;8.00;6.25;;;;;24.65;40.27;101298.03;5075764;27;51300;-57
2021/09/13 03:21:11;;;;;;;;;3.00;3.00;;;;;24.64;40.45;101301.06;5083308;27;51615;-57
2021/09/13 03:23:37;;;;;;;;;7.00;5.00;;;;;24.63;40.26;101294.66;5093375;27;51016;-57
2021/09/13 03:26:02;;;;;;;;;5.50;5.00;;;;;24.62;40.42;101294.91;5093328;27;51016;-57
2021/09/13 03:28:28;;;;;;;;;7.00;6.00;;;;;24.61;40.41;101294.06;5057522;28;51522;-57
2021/09/13 03:30:53;;;;;;;;;5.75;4.00;;;;;24.60;40.30;101294.31;5081791;27;51892;-57
2021/09/13 03:33:18;;;;;;;;;4.50;4.50;;;;;24.59;40.42;101296.22;5075580;27;51100;-58
2021/09/13 03:35:44;;;;;;;;;5.00;4.00;;;;;24.58;40.44;101294.53;5075516;27;51099;-57
2021/09/13 03:38:09;;;;;;;;;8.75;5.00;;;;;24.59;40.38;101296.22;5077730;27;51150;-58
2021/09/13 03:40:35;;;;;;;;;5.75;5.75;;;;;24.58;40.35;101290.91;5082458;27;51132;-56
2021/09/13 03:43:00;;;;;;;;;6.00;6.00;;;;;24.56;40.44;101291.16;5094908;27;51010;-57
2021/09/13 03:45:25;;;;;;;;;5.25;5.25;;;;;24.55;40.54;101295.03;5096041;27;50919;-57
2021/09/13 03:47:51;;;;;;;;;5.50;5.50;;;;;24.55;40.61;101291.41;5088227;27;50922;-57
2021/09/13 03:50:16;;;;;;;;;6.50;4.00;;;;;24.53;40.46;101288.88;5079717;27;51950;-58
2021/09/13 03:52:41;;;;;;;;;9.00;6.00;;;;;24.52;40.53;101289.97;5094036;27;50992;-57
2021/09/13 03:55:07;;;;;;;;;6.00;5.50;;;;;24.51;40.33;101291.06;5094948;27;51441;-57
2021/09/13 03:57:32;;;;;;;;;6.50;6.50;;;;;24.52;40.74;101283.59;5078948;27;51080;-57
2021/09/13 03:59:58;;;;;;;;;5.25;5.00;;;;;24.50;40.60;101289.38;5072608;27;53174;-57
2021/09/13 04:02:23;;;;;;;;;6.50;5.00;;;;;24.49;40.30;101290.44;5080432;27;51014;-56
2021/09/13 04:04:50;;;;;;;;;7.25;6.00;;;;;24.48;40.42;101285.97;5079333;27;50965;-57
2021/09/13 04:07:22;;;;;;;;;8.25;6.25;;;;;24.47;40.49;101279.59;5089806;27;51256;-57
2021/09/13 04:09:56;;;;;;;;;6.75;6.00;;;;;24.47;40.57;101289.81;5095704;27;51747;-57
2021/09/13 04:12:22;;;;;;;;;7.75;7.00;;;;;24.45;40.83;101279.00;5081001;27;51169;-57
2021/09/13 04:14:47;;;;;;;;;6.25;6.00;;;;;24.44;40.61;101280.06;5082046;27;51191;-56
2021/09/13 04:17:13;;;;;;;;;5.00;5.00;;;;;24.44;40.61;101280.06;5078515;27;51116;-57
2021/09/13 04:19:38;;;;;;;;;8.50;5.75;;;;;24.43;41.03;101280.31;5077779;27;51088;-56
2021/09/13 04:22:03;;;;;;;;;6.75;6.75;;;;;24.42;40.57;101281.41;5084467;27;51068;-57
2021/09/13 04:24:29;;;;;;;;;5.75;5.75;;;;;24.41;40.90;101276.94;5098186;27;51693;-57
2021/09/13 04:26:54;;;;;;;;;8.00;7.00;;;;;24.41;40.82;101283.31;5092572;27;51108;-57
2021/09/13 04:29:20;;;;;;;;;8.50;7.25;;;;;24.40;40.75;101270.56;5096860;27;51703;-58
2021/09/13 04:31:45;;;;;;;;;7.25;6.25;;;;;24.40;40.87;101270.56;5086870;27;51294;-58
2021/09/13 04:34:11;;;;;;;;;7.25;6.00;;;;;24.39;40.48;101274.41;5080172;27;51076;-57
2021/09/13 04:36:37;;;;;;;;;6.75;4.00;;;;;24.38;40.77;101266.31;5089897;27;51064;-57
2021/09/13 04:39:02;;;;;;;;;6.25;6.25;;;;;24.37;40.64;101264.66;5096170;27;51263;-57
2021/09/13 04:41:28;;;;;;;;;7.50;5.75;;;;;24.37;40.78;101267.41;5096154;27;51219;-57
2021/09/13 04:43:53;;;;;;;;;3.50;2.75;;;;;24.35;40.74;101273.19;5097233;27;50976;-57
2021/09/13 04:46:19;;;;;;;;;8.25;7.50;;;;;24.34;40.83;101271.50;5089121;27;51309;-57
2021/09/13 04:48:44;;;;;;;;;6.00;6.00;;;;;24.33;40.88;101277.28;5065018;27;51586;-57
2021/09/13 04:51:10;;;;;;;;;6.50;6.00;;;;;24.32;40.83;101267.31;5084850;27;50887;-56
2021/09/13 04:53:35;;;;;;;;;5.75;5.75;;;;;24.31;41.09;101269.22;5087531;27;51587;-56
2021/09/13 04:56:00;;;;;;;;;9.25;6.00;;;;;24.30;40.94;101270.28;5089462;27;51135;-56
2021/09/13 04:58:26;;;;;;;;;6.25;6.25;;;;;24.31;40.63;101273.91;5096393;27;51793;-56
2021/09/13 05:00:51;;;;;;;;;5.00;5.00;;;;;24.29;41.07;101274.13;5093709;27;51103;-56
2021/09/13 05:03:16;;;;;;;;;10.00;7.25;;;;;24.27;41.07;101276.25;5087046;27;51253;-57
2021/09/13 05:05:42;;;;;;;;;9.00;7.00;;;;;24.28;40.98;101271.56;5085534;27;51249;-56
2021/09/13 05:08:07;;;;;;;;;7.00;6.00;;;;;24.28;40.73;101271.56;5096640;27;51150;-56
2021/09/13 05:10:32;;;;;;;;;7.75;7.75;;;;;24.25;41.19;101269.28;5092801;27;51120;-56
2021/09/13 05:12:58;;;;;;;;;7.75;6.50;;;;;24.26;41.02;101270.97;5096261;27;51065;-57
2021/09/13 05:15:23;;;;;;;;;7.00;6.00;;;;;24.25;40.86;101266.53;5077677;27;51226;-57
2021/09/13 05:17:49;;;;;;;;;7.00;6.75;;;;;24.24;41.10;101267.59;5068282;27;53581;-59
2021/09/13 05:20:14;;;;;;;;;6.50;5.50;;;;;24.24;40.97;101259.31;5096213;27;51163;-57
2021/09/13 05:22:40;;;;;;;;;7.00;6.00;;;;;24.24;41.13;101267.59;5088149;27;51156;-55
2021/09/13 05:25:06;;;;;;;;;5.75;5.75;;;;;24.23;40.87;101269.53;5096676;27;51127;-56
2021/09/13 05:27:31;;;;;;;;;6.50;6.50;;;;;24.22;40.95;101267.84;5087771;27;52627;-57
2021/09/13 05:29:57;;;;;;;;;7.75;5.75;;;;;24.22;41.08;101269.78;5078373;27;51008;-58
2021/09/13 05:32:22;;;;;;;;;7.50;6.50;;;;;24.21;41.07;101268.94;5081760;27;51113;-58
2021/09/13 05:34:48;;;;;;;;;6.00;5.50;;;;;24.21;41.14;101262.56;5092676;27;51189;-57
2021/09/13 05:37:13;;;;;;;;;8.25;6.50;;;;;24.19;41.73;101257.25;5089547;27;51120;-58
2021/09/13 05:39:38;;;;;;;;;10.50;7.00;;;;;24.18;41.45;101261.09;5089234;27;51068;-58
2021/09/13 05:42:04;;;;;;;;;8.25;7.25;;;;;24.18;41.42;101256.41;5085343;27;51146;-59
2021/09/13 05:44:30;;;;;;;;;8.00;7.00;;;;;24.15;41.68;101267.94;5083886;27;51383;-58
2021/09/13 05:46:56;;;;;;;;;7.50;6.50;;;;;24.13;41.31;101269.25;5091863;27;50998;-56
2021/09/13 05:49:22;;;;;;;;;8.25;7.25;;;;;24.10;41.45;101270.59;5089574;27;51611;-58
2021/09/13 05:51:51;;;;;;;;;6.50;6.50;;;;;24.07;41.15;101264.66;5082066;27;51320;-59
2021/09/13 05:54:21;;;;;;;;;8.00;8.00;;;;;24.06;41.57;101261.06;5083660;27;51267;-58
2021/09/13 05:56:50;;;;;;;;;7.50;7.00;;;;;24.04;41.47;101265.97;5086427;27;52247;-58
2021/09/13 05:59:16;;;;;;;;;9.00;8.50;;;;;24.01;41.34;101258.16;5078521;27;51311;-57
2021/09/13 06:01:42;;;;;;;;;11.50;9.75;;;;;23.99;41.50;101263.09;5089790;27;51065;-58
2021/09/13 06:04:07;;;;;;;;;7.50;7.50;;;;;23.98;41.65;101268.88;5082672;27;51208;-60
2021/09/13 06:06:32;;;;;;;;;10.50;10.50;;;;;23.97;42.03;101269.91;5089378;27;51120;-60
2021/09/13 06:08:58;;;;;;;;;10.75;7.00;;;;;23.97;41.95;101268.03;5093809;27;51138;-61
2021/09/13 06:11:26;;;;;;;;;9.00;9.00;;;;;23.98;41.79;101271.63;5088032;27;51451;-60
2021/09/13 06:13:52;;;;;;;;;7.00;7.00;;;;;24.00;42.00;101275.00;5076281;27;51452;-59
2021/09/13 06:16:17;;;;;;;;;13.75;7.50;;;;;24.01;42.06;101271.16;5076331;27;51937;-60
2021/09/13 06:18:43;;;;;;;;;10.50;9.00;;;;;24.02;42.17;101273.69;5089271;27;51825;-58
2021/09/13 06:21:08;;;;;;;;;9.50;8.00;;;;;24.03;41.94;101269.00;5089549;27;51420;-58
2021/09/13 06:23:33;;;;;;;;;8.75;8.50;;;;;24.03;42.12;101266.22;5092142;27;51194;-59
2021/09/13 06:25:59;;;;;;;;;7.75;7.00;;;;;24.03;41.90;101271.75;5084349;27;51819;-60
2021/09/13 06:28:24;;;;;;;;;10.50;8.25;;;;;24.02;42.26;101281.16;5088626;27;51224;-56
2021/09/13 06:30:49;;;;;;;;;8.25;7.25;;;;;24.02;41.84;101273.69;5084712;27;51494;-55
2021/09/13 06:33:14;;;;;;;;;8.75;8.00;;;;;24.03;42.26;101275.38;5090915;27;50940;-56
2021/09/13 06:35:40;;;;;;;;;7.25;6.50;;;;;24.03;42.85;101275.38;5067102;27;52631;-50
2021/09/13 06:38:05;;;;;;;;;7.50;7.50;;;;;24.04;42.91;101277.06;5089681;27;51035;-57
2021/09/13 06:40:31;;;;;;;;;10.50;7.00;;;;;24.05;42.88;101273.19;5092867;27;51084;-57
2021/09/13 06:42:56;;;;;;;;;5.00;4.50;;;;;24.06;42.92;101280.41;5086376;27;51187;-60
2021/09/13 06:45:23;;;;;;;;;8.00;6.50;;;;;24.07;42.80;101282.13;5084350;27;51873;-61
2021/09/13 06:47:49;;;;;;;;;5.75;5.75;;;;;24.08;42.69;101294.06;5090471;27;51127;-59
2021/09/13 06:50:26;;;;;;;;;9.50;9.00;;;;;24.10;43.15;101297.41;5087083;27;51251;-58
2021/09/13 06:52:54;;;;;;;;;7.75;5.75;;;;;24.08;42.99;101292.13;5089997;27;51133;-58
2021/09/13 06:55:19;;;;;;;;;6.25;4.75;;;;;24.11;42.91;101305.47;5079802;27;52147;-58
2021/09/13 06:57:45;;;;;;;;;6.00;6.00;;;;;24.11;42.75;101299.94;5083803;27;50915;-58
2021/09/13 07:00:13;;;;;;;;;8.50;7.75;;;;;24.12;42.76;101298.03;5089723;27;51238;-58
2021/09/13 07:02:40;;;;;;;;;9.50;8.00;;;;;24.12;42.68;101298.03;5082547;27;51155;-54
2021/09/13 07:05:07;;;;;;;;;9.75;9.50;;;;;24.13;42.88;101300.56;5080305;27;51812;-57
2021/09/13 07:07:34;;;;;;;;;13.25;9.75;;;;;24.13;42.73;101297.78;5094585;27;51501;-55
2021/09/13 07:09:59;;;;;;;;;8.50;7.50;;;;;24.12;42.69;101298.88;5094268;27;51337;-58
2021/09/13 07:12:25;;;;;;;;;14.00;11.00;;;;;24.12;42.60;101296.09;5094366;27;51005;-50
2021/09/13 07:14:50;;;;;;;;;8.00;7.25;;;;;24.12;42.56;101290.56;5077377;27;51727;-58
2021/09/13 07:17:16;;;;;;;;;14.00;10.75;;;;;24.12;42.86;101285.03;5092667;27;51031;-56
2021/09/13 07:19:41;;;;;;;;;11.75;8.25;;;;;24.13;42.76;101285.88;5085742;27;51166;-54
2021/09/13 07:22:07;;;;;;;;;10.00;8.00;;;;;24.12;42.69;101282.25;5098099;27;51470;-57
2021/09/13 07:24:32;;;;;;;;;10.75;9.25;;;;;24.13;42.42;101280.34;5095290;27;51130;-59
2021/09/13 07:26:58;;;;;;;;;11.00;8.50;;;;;24.13;42.48;101291.41;5088135;27;51314;-52
2021/09/13 07:29:24;;;;;;;;;9.00;9.00;;;;;24.13;42.45;101286.72;5082690;27;51179;-54
2021/09/13 07:31:50;;;;;;;;;9.25;8.25;;;;;24.12;42.43;101282.25;5080823;27;51053;-54
2021/09/13 07:34:15;;;;;;;;;9.00;9.00;;;;;24.12;42.44;101282.25;5077765;27;51061;-55
2021/09/13 07:36:41;;;;;;;;;9.25;8.25;;;;;24.12;42.51;101285.03;5097198;27;51004;-54
2021/09/13 07:39:06;;;;;;;;;9.75;7.00;;;;;24.14;42.15;101282.03;5089646;27;51160;-54
2021/09/13 07:41:32;;;;;;;;;9.00;8.00;;;;;24.12;42.24;101276.72;5084467;27;51019;-54
2021/09/13 07:43:57;;;;;;;;;11.75;9.50;;;;;24.13;42.26;101281.19;5067591;27;53439;-53
2021/09/13 07:46:22;;;;;;;;;10.25;9.00;;;;;24.13;42.44;101280.34;5093628;27;50886;-52
2021/09/13 07:48:47;;;;;;;;;8.25;7.00;;;;;24.14;42.49;101276.47;5078652;27;50994;-54
2021/09/13 07:51:13;;;;;;;;;10.00;9.50;;;;;24.14;42.45;101282.03;5097012;27;50941;-55
2021/09/13 07:53:38;;;;;;;;;10.25;9.50;;;;;24.13;42.50;101278.41;5094512;27;52176;-54
2021/09/13 07:56:04;;;;;;;;;9.25;8.25;;;;;24.15;42.29;101280.94;5096074;27;51209;-54
2021/09/13 07:58:29;;;;;;;;;6.75;6.75;;;;;24.15;42.30;101273.47;5081015;27;51148;-55
2021/09/13 08:00:54;;;;;;;;;14.25;8.50;;;;;24.16;42.64;101277.09;5080457;27;51073;-55
2021/09/13 08:03:20;;;;;;;;;8.00;6.25;;;;;24.16;42.36;101271.56;5083559;27;51733;-55
2021/09/13 08:05:45;;;;;;;;;10.75;9.00;;;;;24.16;42.65;101263.25;5086068;27;51223;-52
2021/09/13 08:08:12;;;;;;;;;6.50;6.25;;;;;24.17;42.47;101263.00;5088431;27;51253;-51
2021/09/13 08:10:38;;;;;;;;;8.25;8.00;;;;;24.18;42.41;101256.41;5090726;27;51309;-54
2021/09/13 08:13:03;;;;;;;;;8.75;7.00;;;;;24.19;42.49;101254.50;5077500;27;51091;-53
2021/09/13 08:15:29;;;;;;;;;7.25;6.50;;;;;24.21;42.56;101257.00;5084432;27;50983;-55
2021/09/13 08:17:54;;;;;;;;;10.00;9.25;;;;;24.21;42.61;101249.56;5096849;27;51168;-55
2021/09/13 08:20:19;;;;;;;;;12.75;11.50;;;;;24.21;42.26;101249.56;5097497;27;51155;-56
2021/09/13 08:22:45;;;;;;;;;10.25;9.00;;;;;24.22;42.60;101251.25;5091010;27;51892;-55
2021/09/13 08:25:11;;;;;;;;;8.25;8.25;;;;;24.23;42.33;101258.47;5096906;27;51143;-56
2021/09/13 08:27:36;;;;;;;;;7.75;6.25;;;;;24.23;42.47;101252.91;5093210;27;51083;-54
2021/09/13 08:30:02;;;;;;;;;7.25;7.25;;;;;24.25;42.43;101255.44;5077559;27;51248;-54
2021/09/13 08:32:27;;;;;;;;;6.50;6.00;;;;;24.26;42.75;101249.66;5080733;27;51095;-54
2021/09/13 08:34:54;;;;;;;;;9.25;7.00;;;;;24.27;42.53;101256.88;5080742;27;51303;-55
2021/09/13 08:37:20;;;;;;;;;12.50;7.25;;;;;24.28;42.62;101246.66;5085814;27;51139;-54
2021/09/13 08:39:46;;;;;;;;;8.75;7.25;;;;;24.28;42.67;101241.13;5084967;27;51346;-53
2021/09/13 08:42:12;;;;;;;;;9.00;8.25;;;;;24.29;42.67;101243.69;5079573;27;51735;-53
2021/09/13 08:44:40;;;;;;;;;6.75;6.75;;;;;24.30;42.77;101250.91;5095451;27;51115;-55
2021/09/13 08:47:21;;;;;;;;;8.25;8.00;;;;;24.31;42.49;101249.00;5094470;27;50991;-53
2021/09/13 08:49:49;;;;;;;;;7.50;7.50;;;;;24.32;42.68;101248.75;5082675;27;51181;-55
2021/09/13 08:52:14;;;;;;;;;5.75;5.75;;;;;24.34;42.61;101252.13;5080366;27;51186;-55
2021/09/13 08:54:40;;;;;;;;;6.75;6.75;;;;;24.33;42.85;101244.91;5085356;27;51254;-54
2021/09/13 08:57:07;;;;;;;;;9.25;8.25;;;;;24.35;42.63;101255.75;5080754;27;51289;-54
2021/09/13 08:59:37;;;;;;;;;7.75;7.50;;;;;24.35;42.66;101253.81;5096464;27;51060;-55
2021/09/13 09:02:04;;;;;;;;;7.75;7.75;;;;;24.35;42.62;101270.44;5094429;27;51971;-54
2021/09/13 09:04:30;;;;;;;;;7.00;7.00;;;;;24.37;42.58;101271.03;5095870;27;51397;-55
2021/09/13 09:07:09;;;;;;;;;8.00;7.25;;;;;24.38;42.37;101271.88;5094795;27;51164;-54
2021/09/13 09:09:34;;;;;;;;;6.00;6.00;;;;;24.39;42.37;101270.81;5086368;27;51217;-55
2021/09/13 09:12:02;;;;;;;;;8.25;7.25;;;;;24.40;42.44;101269.72;5080412;27;52080;-55
2021/09/13 09:14:27;;;;;;;;;6.50;5.75;;;;;24.40;42.55;101270.56;5092695;27;51053;-55
2021/09/13 09:17:08;;;;;;;;;9.75;8.00;;;;;24.41;42.71;101272.25;5086877;27;51382;-54
2021/09/13 09:19:33;;;;;;;;;8.00;7.00;;;;;24.42;42.62;101262.03;5079373;27;51319;-54
2021/09/13 09:22:27;;;;;;;;;7.00;6.75;;;;;24.44;42.41;101268.16;5090962;27;51856;-50
2021/09/13 09:24:54;;;;;;;;;9.00;8.00;;;;;24.45;42.76;101269.84;5088626;27;51139;-54
2021/09/13 09:27:20;;;;;;;;;7.00;6.75;;;;;24.47;42.58;101267.66;5088503;27;51099;-55
2021/09/13 09:29:46;;;;;;;;;8.50;7.75;;;;;24.47;42.70;101260.19;5090568;27;51332;-54
2021/09/13 09:32:27;;;;;;;;;8.00;7.75;;;;;24.49;42.53;101260.00;5088998;27;50996;-53
2021/09/13 09:34:54;;;;;;;;;7.25;7.25;;;;;24.50;42.41;101256.13;5095076;27;51232;-53
2021/09/13 09:37:23;;;;;;;;;5.75;5.50;;;;;24.52;42.70;101255.88;5087478;27;51121;-54
2021/09/13 09:39:53;;;;;;;;;7.25;6.50;;;;;24.53;42.32;101246.50;5085059;27;51257;-55
2021/09/13 09:42:35;;;;;;;;;8.00;8.00;;;;;24.55;42.64;101258.16;5085069;27;51000;-52
2021/09/13 09:45:05;;;;;;;;;8.50;6.50;;;;;24.55;42.33;101252.63;5093815;27;51329;-53
2021/09/13 09:47:31;;;;;;;;;6.50;4.00;;;;;24.58;42.41;101257.69;5076553;27;51255;-53
2021/09/13 09:49:58;;;;;;;;;12.50;8.00;;;;;24.58;42.25;101250.22;5075539;27;51152;-54
2021/09/13 09:52:38;;;;;;;;;5.75;5.75;;;;;24.60;42.36;101252.78;5083476;27;52124;-53
2021/09/13 09:55:19;;;;;;;;;7.00;5.50;;;;;24.60;42.16;101244.47;5076658;27;51458;-55
2021/09/13 09:58:05;;;;;;;;;8.75;6.00;;;;;24.63;42.34;101246.75;5078612;27;51204;-52
2021/09/13 10:00:32;;;;;;;;;6.25;5.75;;;;;24.64;42.37;101234.56;5082448;27;51152;-55
2021/09/13 10:02:57;;;;;;;;;7.75;6.00;;;;;24.65;42.25;101225.19;5079761;27;51930;-54
2021/09/13 10:05:33;;;;;;;;;8.50;6.25;;;;;24.66;42.33;101224.09;5109442;27;51211;-42
2021/09/13 10:07:59;;;;;;;;;6.25;6.25;;;;;24.68;42.45;101221.91;5093032;27;51085;-44
2021/09/13 10:10:30;;;;;;;;;8.00;7.00;;;;;24.69;42.32;101218.91;5074468;27;51401;-45
2021/09/13 10:13:01;;;;;;;;;7.50;6.75;;;;;24.70;42.31;101203.16;5071673;28;51859;-46
2021/09/13 10:15:28;;;;;;;;;9.00;7.75;;;;;24.73;42.42;101195.19;5071620;28;51051;-42
2021/09/13 10:17:54;;;;;;;;;5.50;5.50;;;;;24.73;42.43;101195.19;5072596;28;51129;-43
2021/09/13 10:20:22;;;;;;;;;4.00;4.00;;;;;24.73;42.29;101192.41;5074675;28;51359;-49
2021/09/13 10:22:52;;;;;;;;;8.50;6.75;;;;;24.75;42.37;101195.78;5073184;27;51808;-43
2021/09/13 10:25:18;;;;;;;;;6.75;6.75;;;;;24.75;42.38;101189.41;5082422;27;50948;-44
2021/09/13 10:27:48;;;;;;;;;7.50;6.25;;;;;24.77;42.54;101193.59;5074211;27;50973;-43
2021/09/13 10:30:17;;;;;;;;;7.75;5.75;;;;;24.78;42.53;101202.75;5077433;27;51150;-46
2021/09/13 10:32:44;;;;;;;;;6.50;6.50;;;;;24.80;42.50;101194.19;5075003;27;51372;-43
2021/09/13 10:35:12;;;;;;;;;6.25;6.00;;;;;24.81;42.62;101191.22;5074207;27;51272;-45
2021/09/13 10:37:44;;;;;;;;;6.75;5.50;;;;;24.82;42.48;101190.13;5071424;28;51048;-43
2021/09/13 10:40:15;;;;;;;;;7.25;7.25;;;;;24.83;42.62;101185.44;5072234;27;51341;-42
2021/09/13 10:42:54;;;;;;;;;8.00;6.50;;;;;24.85;42.34;101186.84;5074166;27;51100;-44
2021/09/13 10:45:36;;;;;;;;;4.50;4.50;;;;;24.85;42.43;101186.03;5079368;27;51115;-44
2021/09/13 10:48:06;;;;;;;;;6.50;6.50;;;;;24.87;42.42;101183.84;5071351;28;50983;-42
2021/09/13 10:50:44;;;;;;;;;7.00;6.00;;;;;24.87;42.74;101181.06;5071145;27;50862;-44
2021/09/13 10:53:16;;;;;;;;;8.25;6.50;;;;;24.89;42.48;101184.44;5076967;27;51142;-43
2021/09/13 10:55:41;;;;;;;;;4.50;4.50;;;;;24.89;42.49;101182.50;5079140;27;50826;-42
2021/09/13 10:58:16;;;;;;;;;5.00;5.00;;;;;24.91;42.22;101179.50;5073026;27;51590;-42
2021/09/13 11:00:42;;;;;;;;;6.25;6.25;;;;;24.91;42.47;101177.59;5076052;27;51492;-42
2021/09/13 11:03:22;;;;;;;;;6.00;4.50;;;;;24.94;42.32;101174.31;5070625;28;51853;-42
2021/09/13 11:06:06;;;;;;;;;5.75;5.00;;;;;24.95;42.37;101172.38;5070800;27;50946;-42
2021/09/13 11:08:38;;;;;;;;;8.00;7.00;;;;;24.95;42.75;101172.38;5065224;28;51010;-43
2021/09/13 11:11:10;;;;;;;;;5.00;5.00;;;;;24.96;42.10;101157.44;5070706;27;51085;-43
2021/09/13 11:13:36;;;;;;;;;6.00;5.00;;;;;24.96;42.14;101155.50;5069198;27;51059;-43
2021/09/13 11:16:02;;;;;;;;;5.75;5.75;;;;;24.98;42.47;101163.56;5061609;27;50948;-43
2021/09/13 11:18:41;;;;;;;;;4.75;4.75;;;;;24.96;42.42;101157.44;5057066;28;51074;-46
2021/09/13 11:21:22;;;;;;;;;5.00;5.00;;;;;24.99;42.43;101151.41;5056914;28;51084;-43
2021/09/13 11:23:50;;;;;;;;;4.00;4.00;;;;;24.99;42.35;101148.63;5056877;28;51077;-43